Flight Information

DEPARTURE
EL MONTE, CA
Elevation:
295
Runways:
1/19 - 3995x75 - ASPH-G
Active PE Departure:
1
Current PE ATIS:
F
Altimeter:
Remarks:
ATIS:
118.75 626-444-1107
Ground:
125.9
Tower:
121.2
DESTINATION
,
Elevation:
TPA:
1000 (est.)


6774.3 NM73° True-14° Var59° HDG

Flight Plan:
(click to file on line)

1. Type
2. Aircraft Identification
3. Aircraft Type / Special Equipment
4. True Airspeed
kts
5. Departure Airport
(ICAO code)
6. Arriving Airport
(ICAO code)
7. Cruising Altitude
ft
8. Alternate Airport
(ICAO code)
9. Route of Flight
10. Remarks


00:00:00 Departure ATIS: Destination ATIS:

Clearance Limit:
Route:
Altitude: Expect in minutes
Frequency:
Transponder: (7500 Hijack / 7600 Lost Comms / 7700 Emergency)


KEMT 080145Z 09010KT 2 1/2SM +RA BKN028 OVC050 14/13 A2991
Time: 2020-04-08T01:45:00Z
1586314525
Winds: 90 @ 10 kts
Visibility: 2.5 sm
Clouds (AGL): BKN 2800
OVC 5000
Temperature: 14.0 C
Dew Point: 13.0 C
Pressure: 29.911417 in Hgbr


Notes:

Data extracted from FAA Digital Chart Supplement. Effective: 0901Z Thursday, Mar 26, 2020 to 0901Z Thursday, May 21, 2020
Current ATIS data is provided courtisy of PilotEdge.